Time;durP1;ratioP1;P1;durP2;ratioP2;P2;SDS_P1;SDS_P2;PMS_P1;PMS_P2;Temp;Humidity;BMP_temperature;BMP_pressure;BME280_temperature;BME280_humidity;BME280_pressure;Samples;Min_cycle;Max_cycle;Signal;HPM_P1;HPM_P2
2022/07/22 00:00:11;;;;;;;5.20;2.00;;;;;16.40;97550.60;;;;111125;1249;41606;-73
2022/07/22 00:03:01;;;;;;;6.80;2.00;;;;;16.40;97551.40;;;;111159;1247;41132;-73
2022/07/22 00:05:31;;;;;;;10.10;2.10;;;;;16.40;97552.40;;;;111141;1247;41612;-73
2022/07/22 00:08:01;;;;;;;7.00;2.30;;;;;16.30;97555.00;;;;111216;1247;41468;-74
2022/07/22 00:10:30;;;;;;;4.80;1.90;;;;;16.30;97555.00;;;;111207;1247;41150;-73
2022/07/22 00:13:00;;;;;;;7.70;2.70;;;;;16.30;97560.60;;;;111351;1245;41256;-73
2022/07/22 00:15:30;;;;;;;7.10;2.20;;;;;16.30;97567.80;;;;111262;1247;41606;-73
2022/07/22 00:18:00;;;;;;;5.60;2.30;;;;;16.22;97571.40;;;;111349;1247;41708;-73
2022/07/22 00:20:30;;;;;;;5.00;2.10;;;;;16.20;97579.40;;;;110956;1248;41132;-73
2022/07/22 00:23:00;;;;;;;6.90;2.30;;;;;16.20;97576.60;;;;111248;1245;41259;-74
2022/07/22 00:25:31;;;;;;;4.40;1.90;;;;;16.10;97579.80;;;;111190;1247;41561;-75
2022/07/22 00:28:01;;;;;;;6.70;2.50;;;;;16.10;97580.40;;;;111477;1246;41243;-75
2022/07/22 00:30:31;;;;;;;6.50;2.50;;;;;15.94;97583.80;;;;111162;1248;41164;-76
2022/07/22 00:33:01;;;;;;;6.40;2.70;;;;;15.58;97581.60;;;;111223;1247;41143;-74
2022/07/22 00:35:30;;;;;;;6.50;2.40;;;;;15.40;97576.60;;;;111338;1245;41528;-74
2022/07/22 00:38:01;;;;;;;6.10;2.20;;;;;15.30;97583.40;;;;111191;1246;41920;-73
2022/07/22 00:40:31;;;;;;;5.80;2.30;;;;;15.40;97580.00;;;;111484;1245;41919;-72
2022/07/22 00:43:01;;;;;;;4.70;2.20;;;;;15.40;97580.60;;;;111320;1247;41996;-74
2022/07/22 00:45:32;;;;;;;6.60;2.50;;;;;15.40;97582.80;;;;111252;1248;41176;-75
2022/07/22 00:48:02;;;;;;;5.90;2.40;;;;;15.40;97585.00;;;;111283;1245;41155;-76
2022/07/22 00:50:32;;;;;;;6.90;2.40;;;;;15.42;97584.00;;;;111199;1247;41537;-73
2022/07/22 00:53:02;;;;;;;6.20;2.30;;;;;15.50;97587.60;;;;111352;1245;41175;-73
2022/07/22 00:55:33;;;;;;;4.90;2.30;;;;;15.50;97590.20;;;;111485;1245;41146;-75
2022/07/22 00:58:04;;;;;;;6.10;2.40;;;;;15.50;97590.20;;;;111199;1247;41139;-74
2022/07/22 01:00:33;;;;;;;6.50;2.20;;;;;15.50;97590.60;;;;111277;1247;41142;-73
2022/07/22 01:03:03;;;;;;;7.20;2.30;;;;;15.40;97587.40;;;;111209;1247;40911;-74
2022/07/22 01:05:32;;;;;;;6.30;2.30;;;;;15.40;97588.40;;;;111427;1244;41151;-74
2022/07/22 01:08:06;;;;;;;6.50;2.30;;;;;15.40;97588.00;;;;111131;1248;41174;-74
2022/07/22 01:10:36;;;;;;;4.40;1.90;;;;;15.40;97584.00;;;;111376;1246;41224;-73
2022/07/22 01:13:07;;;;;;;8.10;2.30;;;;;15.34;97584.20;;;;111156;1248;42018;-76
2022/07/22 01:15:36;;;;;;;5.20;2.20;;;;;15.32;97583.80;;;;111169;1248;41161;-73
2022/07/22 01:18:07;;;;;;;7.60;2.30;;;;;15.32;97582.40;;;;111099;1248;41411;-75
2022/07/22 01:20:38;;;;;;;6.30;2.30;;;;;15.32;97581.40;;;;111394;1246;41130;-77
2022/07/22 01:23:08;;;;;;;;;;;;;15.32;97579.60;;;;111037;1248;42003;-76
2022/07/22 01:25:39;;;;;;;5.00;2.00;;;;;15.30;97579.60;;;;110980;1249;41633;-74
2022/07/22 01:28:09;;;;;;;3.90;2.00;;;;;15.30;97578.20;;;;111450;1246;41607;-74
2022/07/22 01:30:40;;;;;;;6.70;2.10;;;;;15.30;97579.80;;;;111505;1245;41187;-73
2022/07/22 01:33:10;;;;;;;4.20;1.90;;;;;15.20;97576.20;;;;111280;1245;42118;-72
2022/07/22 01:35:40;;;;;;;4.90;2.00;;;;;15.20;97575.20;;;;111211;1247;42293;-73
2022/07/22 01:38:11;;;;;;;6.30;2.60;;;;;15.18;97579.40;;;;111193;1247;41727;-73
2022/07/22 01:40:41;;;;;;;6.30;2.30;;;;;15.20;97578.40;;;;111282;1247;41602;-73
2022/07/22 01:43:13;;;;;;;4.70;2.00;;;;;15.10;97585.60;;;;111084;1248;41581;-70
2022/07/22 01:45:49;;;;;;;4.70;1.80;;;;;15.00;97587.80;;;;111219;1247;41202;-74
2022/07/22 01:48:19;;;;;;;3.20;1.60;;;;;15.00;97585.80;;;;111122;1247;41152;-73
2022/07/22 01:50:50;;;;;;;3.80;1.70;;;;;15.00;97586.00;;;;111162;1247;42041;-74
2022/07/22 01:53:20;;;;;;;4.00;1.70;;;;;14.94;97588.40;;;;111139;1248;41436;-71
2022/07/22 01:55:50;;;;;;;7.50;2.40;;;;;14.90;97586.80;;;;111263;1247;41503;-74
2022/07/22 01:58:22;;;;;;;5.40;2.30;;;;;14.98;97582.80;;;;111189;1247;41450;-72
2022/07/22 02:00:53;;;;;;;7.70;2.40;;;;;15.00;97593.80;;;;111208;1247;41600;-74
2022/07/22 02:03:24;;;;;;;5.00;2.00;;;;;14.90;97593.40;;;;111318;1247;41152;-71
2022/07/22 02:05:53;;;;;;;3.40;1.70;;;;;14.90;97589.40;;;;111189;1246;41574;-74
2022/07/22 02:08:25;;;;;;;7.20;2.10;;;;;14.80;97587.40;;;;111196;1247;42073;-74
2022/07/22 02:11:13;;;;;;;7.80;2.30;;;;;14.80;97583.60;;;;111368;1247;42506;-74
2022/07/22 02:13:51;;;;;;;4.70;1.90;;;;;14.82;97579.00;;;;111134;1248;42264;-73
2022/07/22 02:16:23;;;;;;;7.00;2.10;;;;;14.80;97578.20;;;;111418;1245;41154;-73
2022/07/22 02:18:54;;;;;;;9.90;2.40;;;;;14.80;97574.40;;;;111239;1247;40726;-73
2022/07/22 02:21:25;;;;;;;5.70;2.20;;;;;14.86;97579.60;;;;111196;1247;41664;-74
2022/07/22 02:24:00;;;;;;;4.60;2.10;;;;;14.80;97582.60;;;;111306;1247;41256;-73
2022/07/22 02:26:31;;;;;;;6.80;2.60;;;;;14.80;97582.60;;;;111304;1244;42058;-74
2022/07/22 02:29:01;;;;;;;4.20;2.00;;;;;14.80;97583.00;;;;111442;1246;41286;-74
2022/07/22 02:31:31;;;;;;;8.70;2.50;;;;;14.80;97585.80;;;;111433;1246;41258;-75
2022/07/22 02:34:01;;;;;;;8.80;2.30;;;;;14.80;97592.20;;;;111290;1247;41332;-71
2022/07/22 02:36:31;;;;;;;5.60;2.30;;;;;14.76;97585.40;;;;111135;1247;41976;-71
2022/07/22 02:39:03;;;;;;;3.80;1.70;;;;;14.70;97591.20;;;;111227;1247;41149;-75
2022/07/22 02:41:33;;;;;;;5.40;2.10;;;;;14.70;97599.80;;;;111129;1247;41626;-74
2022/07/22 02:44:03;;;;;;;6.60;2.50;;;;;14.60;97599.20;;;;110945;1250;41946;-74
2022/07/22 02:46:33;;;;;;;10.30;2.50;;;;;14.60;97601.80;;;;111078;1248;43111;-74
2022/07/22 02:49:12;;;;;;;9.60;2.80;;;;;14.50;97609.00;;;;111464;1244;41139;-75
2022/07/22 02:51:42;;;;;;;6.30;2.40;;;;;14.50;97621.40;;;;111225;1247;41167;-74
2022/07/22 02:54:11;;;;;;;4.80;2.20;;;;;14.30;97618.40;;;;111028;1247;41357;-74
2022/07/22 02:56:41;;;;;;;5.90;2.10;;;;;14.22;97612.60;;;;111259;1247;41586;-76
2022/07/22 02:59:12;;;;;;;6.90;2.20;;;;;14.20;97622.00;;;;111192;1248;41121;-74
2022/07/22 03:01:44;;;;;;;4.70;1.90;;;;;14.10;97619.20;;;;111248;1247;41179;-76
2022/07/22 03:04:13;;;;;;;7.50;2.00;;;;;14.10;97621.80;;;;111212;1247;41646;-77
2022/07/22 03:06:43;;;;;;;5.90;2.30;;;;;14.10;97620.20;;;;111230;1247;41161;-74
2022/07/22 03:09:17;;;;;;;5.20;2.20;;;;;14.10;97620.20;;;;110985;1250;41163;-75
2022/07/22 03:11:47;;;;;;;5.50;2.20;;;;;14.10;97622.00;;;;111241;1247;41311;-73
2022/07/22 03:14:18;;;;;;;7.10;2.40;;;;;14.10;97615.20;;;;110943;1248;41396;-76
2022/07/22 03:16:48;;;;;;;5.50;2.20;;;;;14.10;97615.80;;;;111188;1248;41410;-76
2022/07/22 03:19:18;;;;;;;6.00;2.30;;;;;14.12;97618.60;;;;111256;1247;42130;-76
2022/07/22 03:21:50;;;;;;;6.20;2.40;;;;;14.20;97625.60;;;;111389;1245;41263;-76
2022/07/22 03:24:19;;;;;;;6.10;2.20;;;;;14.20;97622.20;;;;111370;1245;41258;-77
2022/07/22 03:26:50;;;;;;;6.80;2.20;;;;;14.30;97619.00;;;;111240;1247;41571;-75
2022/07/22 03:29:19;;;;;;;5.60;2.00;;;;;14.38;97622.80;;;;111197;1247;41102;-76
2022/07/22 03:31:49;;;;;;;5.20;1.90;;;;;14.40;97624.60;;;;111297;1245;41258;-76
2022/07/22 03:34:29;;;;;;;4.90;2.10;;;;;14.40;97624.20;;;;111231;1247;41149;-73
2022/07/22 03:37:05;;;;;;;5.70;2.30;;;;;14.50;97621.60;;;;111309;1247;41293;-78
2022/07/22 03:39:34;;;;;;;13.30;2.40;;;;;14.50;97614.80;;;;111179;1247;41189;-75
2022/07/22 03:42:04;;;;;;;3.30;1.70;;;;;14.50;97617.80;;;;111257;1244;41142;-76
2022/07/22 03:44:39;;;;;;;4.90;2.20;;;;;14.60;97616.80;;;;110997;1247;41154;-75
2022/07/22 03:47:08;;;;;;;5.10;2.00;;;;;14.66;97615.80;;;;111221;1247;41152;-75
2022/07/22 03:49:38;;;;;;;3.90;1.80;;;;;14.70;97619.40;;;;111222;1247;41277;-76
2022/07/22 03:52:08;;;;;;;4.00;1.90;;;;;14.80;97623.40;;;;111201;1247;41145;-74
2022/07/22 03:54:37;;;;;;;4.80;2.10;;;;;14.80;97624.60;;;;111486;1244;40935;-77
2022/07/22 03:57:07;;;;;;;5.90;2.30;;;;;14.90;97622.60;;;;111164;1247;41200;-76
2022/07/22 03:59:37;;;;;;;6.30;2.10;;;;;14.90;97624.20;;;;111364;1247;41793;-75
2022/07/22 04:02:06;;;;;;;4.50;1.80;;;;;14.96;97622.40;;;;111190;1246;42049;-75
2022/07/22 04:04:37;;;;;;;6.40;2.30;;;;;15.02;97628.20;;;;111224;1248;41715;-76
2022/07/22 04:07:07;;;;;;;5.40;2.00;;;;;15.10;97624.20;;;;111364;1247;41397;-74
2022/07/22 04:09:37;;;;;;;7.60;2.50;;;;;15.20;97621.80;;;;111145;1248;41273;-75
2022/07/22 04:12:07;;;;;;;6.00;2.50;;;;;15.28;97624.40;;;;111218;1249;41286;-74
2022/07/22 04:14:45;;;;;;;6.80;2.40;;;;;15.40;97625.20;;;;110980;1247;40745;-74
2022/07/22 04:17:14;;;;;;;5.20;2.10;;;;;15.50;97620.20;;;;111375;1246;41160;-73
2022/07/22 04:19:44;;;;;;;6.20;2.20;;;;;15.80;97628.40;;;;111247;1248;41866;-77
2022/07/22 04:22:22;;;;;;;7.70;2.80;;;;;16.10;97628.60;;;;111239;1248;41152;-73
2022/07/22 04:24:55;;;;;;;6.00;2.20;;;;;16.40;97627.00;;;;111227;1248;41148;-76
2022/07/22 04:27:25;;;;;;;5.70;2.10;;;;;16.88;97626.60;;;;111217;1247;41136;-76
2022/07/22 04:29:54;;;;;;;5.50;2.30;;;;;17.44;97618.80;;;;111157;1249;41329;-74
2022/07/22 04:32:24;;;;;;;4.60;2.00;;;;;17.94;97620.40;;;;111215;1248;42252;-77
2022/07/22 04:34:53;;;;;;;4.80;2.10;;;;;18.34;97616.80;;;;111321;1244;41146;-72
2022/07/22 04:37:23;;;;;;;5.30;2.10;;;;;18.66;97618.20;;;;111121;1248;41191;-77
2022/07/22 04:39:52;;;;;;;8.30;2.40;;;;;18.94;97610.00;;;;111239;1247;41139;-74
2022/07/22 04:42:22;;;;;;;7.70;2.60;;;;;19.24;97610.00;;;;111179;1248;41265;-75
2022/07/22 04:44:51;;;;;;;5.90;2.30;;;;;19.58;97603.00;;;;111248;1247;41256;-74
2022/07/22 04:47:22;;;;;;;;;;;;;20.10;97603.00;;;;111319;1244;41996;-75
2022/07/22 04:49:52;;;;;;;5.90;2.10;;;;;20.80;97602.20;;;;111254;1247;41270;-74
2022/07/22 04:52:22;;;;;;;;;;;;;21.44;97594.40;;;;110963;1250;41149;-74
2022/07/22 04:54:51;;;;;;;9.70;2.40;;;;;22.08;97582.80;;;;111130;1248;41176;-76
2022/07/22 04:57:20;;;;;;;6.30;2.10;;;;;22.50;97577.20;;;;111197;1248;41133;-74
2022/07/22 04:59:50;;;;;;;7.40;2.10;;;;;22.84;97577.00;;;;110971;1246;42244;-75
2022/07/22 05:02:20;;;;;;;6.90;2.00;;;;;23.08;97570.80;;;;111112;1247;41759;-75
2022/07/22 05:04:49;;;;;;;6.30;2.10;;;;;23.40;97570.60;;;;110957;1250;41897;-78
2022/07/22 05:07:21;;;;;;;10.70;1.90;;;;;23.72;97571.60;;;;111198;1248;41849;-75
2022/07/22 05:09:51;;;;;;;8.30;2.00;;;;;23.90;97573.20;;;;111204;1247;41252;-77
2022/07/22 05:12:21;;;;;;;7.00;2.10;;;;;24.12;97571.20;;;;111044;1250;41248;-75
2022/07/22 05:14:50;;;;;;;8.50;1.90;;;;;24.40;97577.80;;;;111153;1249;41168;-75
2022/07/22 05:17:20;;;;;;;;;;;;;24.92;97575.80;;;;111213;1248;41146;-77
2022/07/22 05:20:03;;;;;;;6.40;2.10;;;;;25.58;97571.40;;;;111222;1248;41153;-79
2022/07/22 05:22:33;;;;;;;5.30;1.70;;;;;25.80;97572.00;;;;111123;1247;41161;-75
2022/07/22 05:25:07;;;;;;;4.40;1.80;;;;;26.00;97573.80;;;;111107;1247;41699;-71
2022/07/22 05:27:36;;;;;;;4.80;1.70;;;;;26.20;97577.00;;;;111108;1248;41249;-73
2022/07/22 05:30:06;;;;;;;4.50;1.80;;;;;26.50;97579.60;;;;111134;1247;41195;-73
2022/07/22 05:32:36;;;;;;;;;;;;;26.90;97581.00;;;;111187;1247;41136;-72
2022/07/22 05:35:05;;;;;;;6.00;2.10;;;;;27.00;97583.20;;;;111055;1247;41167;-74
2022/07/22 05:37:35;;;;;;;5.00;2.10;;;;;27.00;97585.80;;;;111159;1247;41133;-73
2022/07/22 05:40:05;;;;;;;6.10;1.80;;;;;26.66;97586.00;;;;111095;1247;41617;-72
2022/07/22 05:42:34;;;;;;;6.90;2.00;;;;;26.26;97606.80;;;;111359;1245;42188;-71
2022/07/22 05:45:04;;;;;;;7.50;2.00;;;;;25.56;97616.20;;;;110981;1250;41854;-73
2022/07/22 05:47:34;;;;;;;4.60;1.90;;;;;25.18;97616.20;;;;111000;1250;41142;-72
2022/07/22 05:50:04;;;;;;;5.40;1.70;;;;;25.30;97612.20;;;;110909;1250;42644;-72
2022/07/22 05:52:36;;;;;;;4.60;1.70;;;;;25.64;97613.40;;;;111126;1247;41534;-75
2022/07/22 05:55:07;;;;;;;7.30;1.60;;;;;26.28;97612.20;;;;111185;1247;41164;-74
2022/07/22 05:57:36;;;;;;;3.90;1.60;;;;;26.94;97612.00;;;;111020;1249;41965;-72
2022/07/22 06:00:06;;;;;;;3.20;1.50;;;;;27.70;97611.80;;;;111131;1246;41188;-75
2022/07/22 06:02:41;;;;;;;4.80;1.70;;;;;28.30;97611.80;;;;111080;1250;41615;-75
2022/07/22 06:05:13;;;;;;;6.80;1.60;;;;;28.80;97604.40;;;;111200;1248;41148;-73
2022/07/22 06:08:03;;;;;;;4.50;1.60;;;;;29.40;97608.20;;;;111164;1247;41826;-74
2022/07/22 06:10:39;;;;;;;3.40;1.50;;;;;29.90;97606.40;;;;111122;1247;41115;-74
2022/07/22 06:13:09;;;;;;;7.50;1.60;;;;;30.40;97604.40;;;;110911;1250;41630;-74
2022/07/22 06:15:40;;;;;;;3.50;1.50;;;;;30.90;97604.60;;;;111255;1247;41610;-74
2022/07/22 06:18:09;;;;;;;6.20;1.80;;;;;31.30;97602.40;;;;111206;1247;41141;-76
2022/07/22 06:20:39;;;;;;;5.30;1.80;;;;;31.54;97595.60;;;;111225;1247;41166;-74
2022/07/22 06:23:09;;;;;;;2.60;1.40;;;;;31.80;97598.80;;;;111217;1246;41307;-74
2022/07/22 06:25:38;;;;;;;4.30;1.70;;;;;32.00;97599.80;;;;110988;1248;41724;-74
2022/07/22 06:28:19;;;;;;;7.70;1.90;;;;;32.44;97598.80;;;;110935;1250;42387;-74
2022/07/22 06:30:48;;;;;;;6.20;1.70;;;;;32.74;97597.80;;;;111179;1248;41147;-74
2022/07/22 06:33:18;;;;;;;5.80;1.90;;;;;33.10;97599.20;;;;111149;1248;41382;-73
2022/07/22 06:35:47;;;;;;;3.50;1.50;;;;;33.70;97599.20;;;;111082;1248;41652;-72
2022/07/22 06:38:17;;;;;;;2.70;1.20;;;;;34.28;97595.80;;;;111164;1248;40848;-72
2022/07/22 06:41:26;;;;;;;3.00;1.30;;;;;34.92;97598.40;;;;110968;1247;41209;-74
2022/07/22 06:44:05;;;;;;;4.40;1.50;;;;;35.40;97591.80;;;;111098;1248;41149;-72
2022/07/22 06:46:46;;;;;;;2.90;1.30;;;;;35.76;97591.80;;;;111175;1247;41121;-73
2022/07/22 06:49:17;;;;;;;3.40;1.40;;;;;36.16;97588.00;;;;111280;1247;41169;-73
2022/07/22 06:51:47;;;;;;;2.90;1.40;;;;;36.40;97585.60;;;;111349;1247;41241;-74
2022/07/22 06:54:17;;;;;;;3.30;1.40;;;;;36.66;97588.00;;;;111181;1247;41186;-73
2022/07/22 06:56:47;;;;;;;3.40;1.40;;;;;37.00;97583.80;;;;111235;1246;41149;-74
2022/07/22 06:59:20;;;;;;;3.90;1.40;;;;;37.50;97588.60;;;;111214;1247;41734;-74
2022/07/22 07:01:49;;;;;;;5.50;1.40;;;;;37.24;97591.60;;;;110958;1248;41163;-73
2022/07/22 07:04:19;;;;;;;2.50;1.30;;;;;37.56;97591.60;;;;111197;1247;41314;-74
2022/07/22 07:06:48;;;;;;;;;;;;;37.90;97592.40;;;;111174;1247;41134;-74
2022/07/22 07:09:38;;;;;;;4.90;1.50;;;;;37.16;97590.00;;;;111207;1247;42248;-73
2022/07/22 07:12:15;;;;;;;8.30;1.40;;;;;36.42;97592.20;;;;111212;1247;41160;-74
2022/07/22 07:15:03;;;;;;;3.30;1.30;;;;;36.42;97592.80;;;;111253;1247;41628;-73
2022/07/22 07:17:53;;;;;;;4.70;1.40;;;;;36.00;97598.20;;;;111161;1248;41171;-73
2022/07/22 07:20:23;;;;;;;2.10;1.20;;;;;35.28;97600.00;;;;111169;1248;41151;-74
2022/07/22 07:22:53;;;;;;;3.90;1.40;;;;;34.56;97611.60;;;;111188;1249;40980;-74
2022/07/22 07:25:23;;;;;;;4.20;1.70;;;;;33.52;97613.20;;;;111199;1248;42156;-74
2022/07/22 07:27:54;;;;;;;2.90;1.30;;;;;32.20;97620.20;;;;111267;1248;41156;-75
2022/07/22 07:30:39;;;;;;;3.40;1.60;;;;;31.04;97623.40;;;;110960;1249;42392;-73
2022/07/22 07:33:08;;;;;;;5.50;1.60;;;;;30.20;97625.00;;;;111154;1248;42386;-73
2022/07/22 07:35:37;;;;;;;3.90;1.60;;;;;30.20;97623.00;;;;111152;1247;41153;-73
2022/07/22 07:38:07;;;;;;;5.60;1.70;;;;;30.30;97622.60;;;;111254;1247;41565;-73
2022/07/22 07:40:37;;;;;;;2.60;1.20;;;;;30.12;97621.60;;;;111304;1246;41896;-73
2022/07/22 07:43:06;;;;;;;6.80;2.00;;;;;29.90;97617.80;;;;111316;1247;41531;-73
2022/07/22 07:45:36;;;;;;;5.40;1.80;;;;;29.84;97617.00;;;;110677;1247;358260;-73
2022/07/22 07:48:06;;;;;;;7.20;1.90;;;;;29.60;97617.80;;;;111490;1245;41133;-73
2022/07/22 07:50:35;;;;;;;2.80;1.50;;;;;29.40;97622.40;;;;111203;1246;41347;-72
2022/07/22 07:53:05;;;;;;;2.90;1.50;;;;;29.60;97613.80;;;;111119;1247;41260;-72
2022/07/22 07:55:38;;;;;;;12.40;2.00;;;;;29.76;97619.20;;;;111219;1247;41135;-73
2022/07/22 07:58:07;;;;;;;4.40;1.70;;;;;29.78;97613.60;;;;111172;1247;41358;-73
2022/07/22 08:00:39;;;;;;;4.70;2.00;;;;;29.62;97610.40;;;;111241;1247;41577;-73
2022/07/22 08:03:08;;;;;;;4.70;1.80;;;;;29.40;97606.40;;;;111182;1248;41545;-72
2022/07/22 08:05:41;;;;;;;;;;;;;29.10;97607.00;;;;111226;1247;41181;-73
2022/07/22 08:08:15;;;;;;;4.40;1.70;;;;;29.20;97607.80;;;;111310;1246;41136;-73
2022/07/22 08:10:45;;;;;;;5.80;2.40;;;;;29.40;97611.80;;;;111204;1247;41157;-73
2022/07/22 08:13:52;;;;;;;5.80;2.10;;;;;29.50;97614.60;;;;111444;1245;41140;-73
2022/07/22 08:16:30;;;;;;;5.10;1.80;;;;;29.60;97610.40;;;;111151;1247;41161;-73
2022/07/22 08:19:00;;;;;;;3.30;1.60;;;;;29.80;97614.60;;;;111252;1246;41167;-73
2022/07/22 08:21:30;;;;;;;4.90;1.70;;;;;29.98;97617.40;;;;111188;1248;41347;-73
2022/07/22 08:24:01;;;;;;;5.60;2.00;;;;;30.36;97616.40;;;;111397;1247;41139;-73
2022/07/22 08:26:31;;;;;;;;;;;;;30.70;97611.60;;;;111210;1249;41994;-74
2022/07/22 08:29:02;;;;;;;4.40;1.80;;;;;31.00;97610.80;;;;111194;1247;41572;-73
2022/07/22 08:31:34;;;;;;;6.40;1.90;;;;;31.30;97608.00;;;;110979;1250;41193;-74
2022/07/22 08:34:08;;;;;;;5.20;1.70;;;;;31.50;97606.60;;;;111179;1247;41123;-73
2022/07/22 08:36:37;;;;;;;4.10;1.60;;;;;31.70;97609.20;;;;111232;1247;41250;-73
2022/07/22 08:39:06;;;;;;;4.80;1.70;;;;;31.86;97605.00;;;;111222;1247;41149;-74
2022/07/22 08:41:38;;;;;;;8.60;1.90;;;;;31.90;97610.00;;;;111371;1246;41188;-74
2022/07/22 08:44:09;;;;;;;7.90;1.90;;;;;32.08;97611.60;;;;111229;1248;41152;-72
2022/07/22 08:46:38;;;;;;;12.40;2.70;;;;;32.30;97608.20;;;;110979;1248;41630;-73
2022/07/22 08:49:16;;;;;;;12.90;2.70;;;;;32.48;97610.00;;;;111181;1247;41143;-73
2022/07/22 08:52:06;;;;;;;6.50;2.40;;;;;32.32;97603.40;;;;111122;1248;41136;-73
2022/07/22 08:54:47;;;;;;;11.80;2.30;;;;;31.92;97603.00;;;;111351;1247;41819;-73
2022/07/22 08:57:18;;;;;;;7.60;2.40;;;;;31.58;97605.60;;;;111177;1248;41155;-73
2022/07/22 08:59:50;;;;;;;9.50;2.40;;;;;31.30;97611.00;;;;111368;1247;41258;-73
2022/07/22 09:02:21;;;;;;;6.40;1.80;;;;;31.32;97604.20;;;;111096;1250;41150;-73
2022/07/22 09:05:05;;;;;;;6.80;2.00;;;;;31.20;97606.60;;;;111441;1247;41140;-73
2022/07/22 09:07:58;;;;;;;9.40;2.10;;;;;31.64;97602.40;;;;111073;1248;41483;-73
2022/07/22 09:10:41;;;;;;;7.10;2.40;;;;;32.42;97600.80;;;;111172;1247;41008;-72
2022/07/22 09:13:33;;;;;;;6.00;2.10;;;;;32.86;97596.60;;;;111345;1247;41959;-73
2022/07/22 09:16:46;;;;;;;7.90;2.10;;;;;32.42;97591.80;;;;111334;1247;41689;-74
2022/07/22 09:19:33;;;;;;;5.00;1.80;;;;;32.60;97597.40;;;;111275;1247;41789;-73
2022/07/22 09:22:40;;;;;;;4.60;1.80;;;;;33.30;97587.80;;;;111029;1247;41241;-72
2022/07/22 09:25:32;;;;;;;4.80;1.80;;;;;34.28;97598.20;;;;111163;1247;41248;-73
2022/07/22 09:28:21;;;;;;;5.40;1.70;;;;;34.70;97596.80;;;;111430;1245;41381;-74
2022/07/22 09:31:24;;;;;;;5.30;2.00;;;;;35.38;97594.20;;;;111202;1247;42267;-73
2022/07/22 09:33:58;;;;;;;6.10;1.90;;;;;35.04;97593.20;;;;111481;1246;41164;-73
2022/07/22 09:36:31;;;;;;;7.80;2.30;;;;;34.62;97586.60;;;;111199;1247;41470;-73
2022/07/22 09:39:00;;;;;;;5.60;1.70;;;;;34.92;97596.20;;;;111245;1249;41590;-74
2022/07/22 09:41:29;;;;;;;9.50;1.90;;;;;34.30;97593.60;;;;111102;1248;41133;-74
2022/07/22 09:44:20;;;;;;;6.00;1.90;;;;;34.60;97593.80;;;;111255;1247;41321;-72
2022/07/22 09:46:51;;;;;;;6.30;1.90;;;;;35.52;97592.40;;;;111203;1248;41143;-72
2022/07/22 09:49:43;;;;;;;5.10;1.70;;;;;35.74;97589.80;;;;111226;1246;42416;-73
2022/07/22 09:52:37;;;;;;;6.10;1.80;;;;;35.30;97586.60;;;;111121;1248;42417;-73
2022/07/22 09:55:08;;;;;;;5.30;1.80;;;;;35.14;97576.60;;;;111216;1247;41694;-73
2022/07/22 09:57:40;;;;;;;5.80;2.20;;;;;34.84;97582.00;;;;111292;1247;41144;-73
2022/07/22 10:00:11;;;;;;;4.50;1.80;;;;;34.90;97579.80;;;;111371;1246;41145;-73
2022/07/22 10:02:47;;;;;;;4.10;1.70;;;;;35.04;97576.80;;;;111206;1247;41720;-72
2022/07/22 10:05:19;;;;;;;9.80;1.80;;;;;35.10;97573.40;;;;111188;1248;41112;-72
2022/07/22 10:07:50;;;;;;;5.60;1.90;;;;;35.50;97575.60;;;;111228;1248;41126;-72
2022/07/22 10:10:22;;;;;;;5.30;1.80;;;;;35.60;97577.40;;;;111276;1244;41124;-73
2022/07/22 10:12:54;;;;;;;4.30;1.40;;;;;35.04;97570.00;;;;111288;1247;42143;-72
2022/07/22 10:15:25;;;;;;;4.10;1.50;;;;;34.98;97566.20;;;;111209;1248;41137;-72
2022/07/22 10:18:06;;;;;;;8.50;1.60;;;;;35.56;97567.40;;;;111202;1247;41689;-73
2022/07/22 10:20:36;;;;;;;4.40;1.40;;;;;36.20;97569.60;;;;111166;1248;41142;-72
2022/07/22 10:23:07;;;;;;;2.60;1.50;;;;;36.72;97569.80;;;;111188;1249;41144;-72
2022/07/22 10:25:59;;;;;;;4.90;1.60;;;;;37.26;97566.40;;;;111203;1248;41133;-72
2022/07/22 10:28:35;;;;;;;4.50;1.50;;;;;37.80;97563.60;;;;111191;1248;41522;-73
2022/07/22 10:31:21;;;;;;;5.10;1.80;;;;;38.00;97559.40;;;;111161;1248;41232;-72
2022/07/22 10:33:56;;;;;;;4.00;1.40;;;;;38.10;97558.80;;;;111476;1246;42152;-73
2022/07/22 10:36:31;;;;;;;5.00;1.50;;;;;37.56;97558.00;;;;111213;1248;41254;-73
2022/07/22 10:39:09;;;;;;;6.10;1.60;;;;;37.50;97562.60;;;;111208;1247;41250;-73
2022/07/22 10:41:41;;;;;;;5.30;1.70;;;;;37.50;97557.60;;;;111314;1247;41146;-73
2022/07/22 10:44:12;;;;;;;4.60;1.50;;;;;37.32;97549.20;;;;111215;1247;41197;-73
2022/07/22 10:46:52;;;;;;;5.20;1.50;;;;;37.08;97548.40;;;;111411;1246;41136;-73
2022/07/22 10:49:24;;;;;;;5.90;1.60;;;;;37.36;97552.80;;;;111329;1247;41759;-72
2022/07/22 10:52:22;;;;;;;4.00;1.60;;;;;37.40;97551.60;;;;111355;1247;41148;-72
2022/07/22 10:55:16;;;;;;;4.70;1.50;;;;;37.20;97556.00;;;;111277;1247;41421;-73
2022/07/22 10:57:46;;;;;;;5.00;1.60;;;;;37.50;97554.80;;;;111276;1245;41144;-73
2022/07/22 11:00:16;;;;;;;5.00;1.50;;;;;37.74;97546.00;;;;111213;1247;41151;-73
2022/07/22 11:02:44;;;;;;;3.30;1.30;;;;;38.04;97546.20;;;;111167;1248;41123;-73
2022/07/22 11:05:14;;;;;;;4.90;1.30;;;;;38.56;97552.20;;;;111205;1249;41584;-73
2022/07/22 11:07:44;;;;;;;3.30;1.30;;;;;39.10;97549.00;;;;111208;1248;40752;-73
2022/07/22 11:10:15;;;;;;;3.00;1.30;;;;;39.72;97541.60;;;;111180;1247;41148;-73
2022/07/22 11:12:48;;;;;;;2.20;1.30;;;;;40.70;97534.20;;;;111242;1248;41347;-71
2022/07/22 11:15:17;;;;;;;3.60;1.60;;;;;41.74;97527.60;;;;111252;1248;42368;-72
2022/07/22 11:17:46;;;;;;;5.00;1.70;;;;;42.34;97521.40;;;;111122;1248;41259;-72
2022/07/22 11:20:14;;;;;;;5.20;1.30;;;;;42.20;97520.00;;;;111164;1248;41155;-72
2022/07/22 11:22:46;;;;;;;3.40;1.40;;;;;42.44;97519.20;;;;111352;1247;41556;-72
2022/07/22 11:25:16;;;;;;;3.30;1.40;;;;;43.18;97518.80;;;;111120;1249;41712;-71
2022/07/22 11:27:57;;;;;;;5.40;1.80;;;;;43.50;97526.40;;;;111413;1247;41703;-73
2022/07/22 11:30:26;;;;;;;3.00;1.40;;;;;43.80;97522.80;;;;111219;1248;42409;-72
2022/07/22 11:32:55;;;;;;;3.10;1.30;;;;;44.02;97521.60;;;;111211;1248;42110;-73
2022/07/22 11:35:24;;;;;;;4.10;1.20;;;;;44.46;97518.80;;;;111115;1248;41142;-72
2022/07/22 11:37:57;;;;;;;4.10;1.50;;;;;45.16;97508.40;;;;111317;1247;42287;-72
2022/07/22 11:40:33;;;;;;;2.60;1.30;;;;;44.72;97506.60;;;;111218;1247;41267;-72
2022/07/22 11:43:03;;;;;;;4.20;1.30;;;;;44.80;97503.20;;;;111217;1247;41327;-72
2022/07/22 11:45:32;;;;;;;3.10;1.50;;;;;45.12;97500.00;;;;111371;1247;41136;-72
2022/07/22 11:48:08;;;;;;;3.10;1.30;;;;;45.20;97505.40;;;;111203;1248;41159;-72
2022/07/22 11:50:38;;;;;;;3.50;1.50;;;;;45.20;97497.60;;;;111205;1248;41155;-71
2022/07/22 11:53:07;;;;;;;2.70;1.30;;;;;45.30;97497.60;;;;111054;1247;41623;-71
2022/07/22 11:55:36;;;;;;;4.50;1.70;;;;;45.46;97491.60;;;;111194;1249;41251;-71
2022/07/22 11:58:04;;;;;;;;;;;;;44.30;97496.40;;;;111204;1247;42144;-72
2022/07/22 12:00:33;;;;;;;3.20;1.60;;;;;44.10;97497.40;;;;111154;1250;41236;-72
2022/07/22 12:03:02;;;;;;;;;;;;;43.82;97495.00;;;;111160;1247;41150;-71
2022/07/22 12:05:31;;;;;;;;;;;;;44.36;97492.80;;;;111396;1247;42098;-72
2022/07/22 12:08:01;;;;;;;4.80;1.60;;;;;44.78;97487.80;;;;111341;1247;41152;-72
2022/07/22 12:10:30;;;;;;;3.90;1.40;;;;;45.36;97482.00;;;;111223;1248;41611;-72
2022/07/22 12:12:59;;;;;;;4.60;1.50;;;;;45.58;97482.40;;;;111361;1247;41145;-72
2022/07/22 12:15:28;;;;;;;4.50;1.60;;;;;45.70;97474.20;;;;111302;1247;41255;-72
2022/07/22 12:18:21;;;;;;;3.70;1.60;;;;;45.70;97475.20;;;;111206;1247;41607;-72
2022/07/22 12:20:51;;;;;;;2.30;1.30;;;;;45.68;97471.40;;;;111181;1249;41514;-72
2022/07/22 12:23:24;;;;;;;5.80;1.40;;;;;45.28;97472.20;;;;111189;1247;41328;-73
2022/07/22 12:25:59;;;;;;;3.60;1.40;;;;;45.24;97470.60;;;;111224;1247;41145;-72
2022/07/22 12:28:28;;;;;;;2.70;1.20;;;;;45.16;97467.80;;;;111202;1247;41386;-71
2022/07/22 12:30:57;;;;;;;5.10;1.40;;;;;44.16;97469.60;;;;111311;1247;41132;-72
2022/07/22 12:33:26;;;;;;;;;;;;;43.70;97469.20;;;;111173;1247;41665;-72
2022/07/22 12:36:06;;;;;;;6.30;1.90;;;;;42.82;97469.60;;;;111369;1247;41178;-72
2022/07/22 12:38:36;;;;;;;2.90;1.50;;;;;41.86;97464.60;;;;111268;1247;41263;-71